Time;durP1;ratioP1;P1;durP2;ratioP2;P2;SDS_P1;SDS_P2;PMS_P1;PMS_P2;Temp;Humidity;BMP_temperature;BMP_pressure;BME280_temperature;BME280_humidity;BME280_pressure;Samples;Min_cycle;Max_cycle;Signal;HPM_P1;HPM_P2
2023/02/26 00:01:21;;;;;;;4.80;2.07;;;3.20;99.90;;;;;;5041360;28;20562;-60
2023/02/26 00:03:49;;;;;;;6.30;1.97;;;3.30;99.90;;;;;;5036012;28;20638;-60
2023/02/26 00:06:17;;;;;;;7.87;2.10;;;3.30;99.90;;;;;;5038048;28;20325;-59
2023/02/26 00:08:44;;;;;;;7.07;1.87;;;3.40;99.90;;;;;;5036190;28;20211;-60
2023/02/26 00:11:12;;;;;;;4.37;2.00;;;3.50;99.90;;;;;;5035929;28;20228;-59
2023/02/26 00:13:42;;;;;;;7.07;2.13;;;3.40;99.90;;;;;;5028964;28;20681;-60
2023/02/26 00:16:30;;;;;;;6.77;2.10;;;3.20;99.90;;;;;;5036215;28;20204;-60
2023/02/26 00:18:59;;;;;;;5.33;1.90;;;3.30;99.90;;;;;;5035693;28;20263;-60
2023/02/26 00:21:27;;;;;;;7.20;2.40;;;3.50;99.90;;;;;;5030676;28;20284;-60
2023/02/26 00:23:55;;;;;;;4.57;1.60;;;3.40;99.90;;;;;;5036599;28;20689;-60
2023/02/26 00:26:24;;;;;;;5.37;1.90;;;3.40;99.90;;;;;;5037294;28;20238;-60
2023/02/26 00:28:51;;;;;;;7.03;1.53;;;3.40;99.90;;;;;;5044511;28;20206;-60
2023/02/26 00:31:24;;;;;;;6.07;1.90;;;3.30;99.90;;;;;;5038772;28;20238;-61
2023/02/26 00:33:53;;;;;;;7.53;2.00;;;3.20;99.90;;;;;;5030354;28;20647;-61
2023/02/26 00:36:50;;;;;;;5.23;2.13;;;3.20;99.90;;;;;;5036506;28;20235;-60
2023/02/26 00:39:20;;;;;;;7.40;1.90;;;3.20;99.90;;;;;;5038298;28;20552;-63
2023/02/26 00:41:47;;;;;;;5.63;1.90;;;3.40;99.90;;;;;;5024849;28;20201;-65
2023/02/26 00:44:14;;;;;;;8.03;2.10;;;3.50;99.90;;;;;;5035611;28;20717;-60
2023/02/26 00:46:45;;;;;;;5.57;1.80;;;3.30;99.90;;;;;;5038808;28;20932;-60
2023/02/26 00:49:38;;;;;;;6.33;1.73;;;3.30;99.90;;;;;;5040615;28;20433;-60
2023/02/26 00:52:14;;;;;;;5.67;1.73;;;3.30;99.90;;;;;;5038650;28;20215;-61
2023/02/26 00:54:40;;;;;;;3.77;1.77;;;3.30;99.90;;;;;;5032231;28;20230;-60
2023/02/26 00:57:07;;;;;;;3.77;2.10;;;3.30;99.90;;;;;;5036248;28;20305;-60
2023/02/26 00:59:34;;;;;;;5.10;1.20;;;3.20;99.90;;;;;;5037910;28;20244;-60
2023/02/26 01:02:01;;;;;;;6.33;1.27;;;3.10;99.90;;;;;;5036424;28;20200;-60
2023/02/26 01:04:29;;;;;;;1.53;1.30;;;3.20;99.90;;;;;;5033956;28;20254;-60
2023/02/26 01:06:57;;;;;;;3.67;1.70;;;3.20;99.90;;;;;;5041765;28;20240;-60
2023/02/26 01:09:26;;;;;;;2.30;1.47;;;3.10;99.90;;;;;;5038376;28;20201;-62
2023/02/26 01:11:55;;;;;;;2.43;1.47;;;3.10;99.90;;;;;;5033410;28;20211;-59
2023/02/26 01:14:23;;;;;;;5.67;1.33;;;3.20;99.90;;;;;;5038543;28;20955;-60
2023/02/26 01:17:05;;;;;;;6.07;1.50;;;3.10;99.90;;;;;;5037954;28;20243;-60
2023/02/26 01:19:40;;;;;;;2.47;1.20;;;3.20;99.90;;;;;;5034996;28;20659;-60
2023/02/26 01:22:15;;;;;;;4.67;1.60;;;2.90;99.90;;;;;;5038970;28;20288;-60
2023/02/26 01:24:42;;;;;;;2.33;1.20;;;3.00;99.90;;;;;;5038631;28;20657;-61
2023/02/26 01:27:09;;;;;;;6.47;1.83;;;3.00;99.90;;;;;;5034733;28;20254;-60
2023/02/26 01:29:36;;;;;;;2.67;1.30;;;3.00;99.90;;;;;;5038787;28;20285;-60
2023/02/26 01:32:23;;;;;;;3.57;1.40;;;2.90;99.90;;;;;;5036309;28;20659;-59
2023/02/26 01:35:00;;;;;;;3.30;1.67;;;2.90;99.90;;;;;;5036666;28;20202;-60
2023/02/26 01:37:38;;;;;;;4.33;1.40;;;2.90;99.90;;;;;;5034500;28;21138;-60
2023/02/26 01:40:23;;;;;;;10.63;1.63;;;2.90;99.90;;;;;;5036252;28;20293;-61
2023/02/26 01:42:53;;;;;;;5.00;1.27;;;3.00;99.90;;;;;;5036882;28;20264;-61
2023/02/26 01:45:28;;;;;;;2.40;1.30;;;3.00;99.90;;;;;;5037796;28;20560;-59
2023/02/26 01:48:05;;;;;;;3.10;1.43;;;2.90;99.90;;;;;;5036077;28;20644;-60
2023/02/26 01:50:34;;;;;;;5.63;2.37;;;2.90;99.90;;;;;;5037447;28;20540;-60
2023/02/26 01:53:19;;;;;;;7.80;1.60;;;2.90;99.90;;;;;;5037262;28;20243;-60
2023/02/26 01:55:54;;;;;;;3.03;1.13;;;2.80;99.90;;;;;;5039284;28;20206;-61
2023/02/26 01:58:23;;;;;;;4.70;1.70;;;2.80;99.90;;;;;;5037768;28;20552;-61
2023/02/26 02:00:50;;;;;;;2.07;1.30;;;2.70;99.90;;;;;;5036336;28;20662;-61
2023/02/26 02:03:20;;;;;;;4.47;1.43;;;2.70;99.90;;;;;;5037264;28;20311;-61
2023/02/26 02:05:53;;;;;;;1.90;1.00;;;2.80;99.90;;;;;;5038448;28;20740;-61
2023/02/26 02:08:21;;;;;;;6.60;2.07;;;2.70;99.90;;;;;;5035088;28;20231;-61
2023/02/26 02:10:50;;;;;;;2.67;1.37;;;2.70;99.90;;;;;;5043889;28;20271;-61
2023/02/26 02:13:33;;;;;;;3.33;1.70;;;2.60;99.90;;;;;;5030733;28;20223;-60
2023/02/26 02:16:17;;;;;;;3.00;1.20;;;2.60;99.90;;;;;;5038492;28;20259;-60
2023/02/26 02:19:07;;;;;;;3.70;1.13;;;2.70;99.90;;;;;;5035802;28;20212;-60
2023/02/26 02:22:02;;;;;;;3.20;1.23;;;2.70;99.90;;;;;;5010341;28;20296;-61
2023/02/26 02:24:49;;;;;;;3.07;0.90;;;2.60;99.90;;;;;;5031350;28;20213;-60
2023/02/26 02:27:57;;;;;;;7.37;1.27;;;2.50;99.90;;;;;;5037750;28;20280;-59
2023/02/26 02:30:41;;;;;;;1.17;0.80;;;2.60;99.90;;;;;;5038169;28;20288;-60
2023/02/26 02:33:19;;;;;;;3.87;1.40;;;2.60;99.90;;;;;;5032784;28;20262;-59
2023/02/26 02:35:56;;;;;;;3.77;1.00;;;2.60;99.90;;;;;;5037395;28;20595;-60
2023/02/26 02:38:28;;;;;;;2.40;1.00;;;2.50;99.90;;;;;;5034234;28;20557;-63
2023/02/26 02:41:07;;;;;;;1.50;1.10;;;2.50;99.90;;;;;;5037397;28;20690;-60
2023/02/26 02:43:37;;;;;;;2.27;1.00;;;2.50;99.90;;;;;;5035336;28;20392;-60
2023/02/26 02:46:07;;;;;;;5.40;1.30;;;2.40;99.90;;;;;;5035248;28;20291;-60
2023/02/26 02:48:39;;;;;;;4.47;1.17;;;2.40;99.90;;;;;;5033682;28;20198;-60
2023/02/26 02:51:09;;;;;;;4.13;1.37;;;2.40;99.90;;;;;;5034753;28;20600;-60
2023/02/26 02:53:53;;;;;;;3.63;1.17;;;2.30;99.90;;;;;;5036531;28;20201;-59
2023/02/26 02:56:42;;;;;;;2.57;1.10;;;2.40;99.90;;;;;;5038557;28;20212;-64
2023/02/26 02:59:35;;;;;;;2.70;1.00;;;2.30;99.90;;;;;;5036464;28;20314;-59
2023/02/26 03:02:10;;;;;;;3.63;0.97;;;2.30;99.90;;;;;;5033518;28;20247;-59
2023/02/26 03:04:40;;;;;;;2.43;0.90;;;2.20;99.90;;;;;;5033298;28;20302;-59
2023/02/26 03:07:07;;;;;;;2.13;1.30;;;2.20;99.90;;;;;;5034519;28;20248;-59
2023/02/26 03:09:34;;;;;;;3.10;1.10;;;2.20;99.90;;;;;;5036215;28;20583;-59
2023/02/26 03:12:01;;;;;;;5.00;1.10;;;2.30;99.90;;;;;;5039526;28;20282;-60
2023/02/26 03:14:29;;;;;;;3.90;1.40;;;2.30;99.90;;;;;;5033696;28;20210;-59
2023/02/26 03:17:06;;;;;;;6.17;0.90;;;2.30;99.90;;;;;;5034414;28;20621;-60
2023/02/26 03:20:07;;;;;;;3.17;0.90;;;2.20;99.90;;;;;;5040334;28;20284;-59
2023/02/26 03:23:00;;;;;;;6.43;1.00;;;2.20;99.90;;;;;;5035202;28;20232;-60
2023/02/26 03:25:52;;;;;;;2.07;1.07;;;2.10;99.90;;;;;;5039717;28;20208;-64
2023/02/26 03:28:25;;;;;;;2.50;0.87;;;2.10;99.90;;;;;;5039137;28;20218;-61
2023/02/26 03:31:12;;;;;;;2.93;0.90;;;2.00;99.90;;;;;;5041004;28;20283;-60
2023/02/26 03:34:00;;;;;;;4.63;1.77;;;2.10;99.90;;;;;;5040087;28;20216;-61
2023/02/26 03:36:56;;;;;;;1.27;0.80;;;2.00;99.90;;;;;;5040704;28;20228;-61
2023/02/26 03:39:41;;;;;;;2.97;1.57;;;2.00;99.90;;;;;;5036798;28;20205;-60
2023/02/26 03:42:14;;;;;;;2.63;0.77;;;2.00;99.90;;;;;;5042453;28;20275;-60
2023/02/26 03:44:52;;;;;;;3.10;0.87;;;2.00;99.90;;;;;;5042734;28;20215;-61
2023/02/26 03:47:19;;;;;;;2.30;1.00;;;2.00;99.90;;;;;;5041322;28;20290;-61
2023/02/26 03:50:06;;;;;;;4.33;1.00;;;2.10;99.90;;;;;;5037188;28;20208;-61
2023/02/26 03:52:38;;;;;;;5.20;1.37;;;2.00;99.90;;;;;;5034714;28;20216;-60
2023/02/26 03:55:20;;;;;;;3.00;1.17;;;1.90;99.90;;;;;;5039319;28;20230;-60
2023/02/26 03:57:48;;;;;;;5.43;0.90;;;1.90;99.90;;;;;;5039600;28;20201;-61
2023/02/26 04:00:16;;;;;;;2.97;0.90;;;2.00;99.90;;;;;;5041805;28;20236;-60
2023/02/26 04:03:02;;;;;;;4.67;0.90;;;1.90;99.90;;;;;;5039996;28;20247;-60
2023/02/26 04:05:37;;;;;;;5.60;1.00;;;1.90;99.90;;;;;;5040424;28;20278;-60
2023/02/26 04:08:04;;;;;;;2.17;1.03;;;1.90;99.90;;;;;;5037216;28;20197;-60
2023/02/26 04:10:58;;;;;;;3.10;0.60;;;2.00;99.90;;;;;;5036288;28;20259;-61
2023/02/26 04:13:27;;;;;;;4.47;0.80;;;2.00;99.90;;;;;;5038800;28;20675;-61
2023/02/26 04:15:54;;;;;;;4.67;1.37;;;1.90;99.90;;;;;;5040803;28;20196;-61
2023/02/26 04:18:20;;;;;;;6.30;1.07;;;1.90;99.90;;;;;;5038244;28;20197;-62
2023/02/26 04:20:47;;;;;;;3.10;1.00;;;1.90;99.90;;;;;;5040719;28;20255;-61
2023/02/26 04:23:14;;;;;;;2.60;0.53;;;1.80;99.90;;;;;;5039838;28;20575;-61
2023/02/26 04:25:41;;;;;;;4.00;1.10;;;1.80;99.90;;;;;;5040264;28;20217;-61
2023/02/26 04:28:08;;;;;;;9.07;1.30;;;1.80;99.90;;;;;;5034343;28;20625;-61
2023/02/26 04:30:35;;;;;;;2.17;0.87;;;1.80;99.90;;;;;;5034194;28;20517;-60
2023/02/26 04:33:02;;;;;;;2.33;0.73;;;1.70;99.90;;;;;;5033632;28;20242;-61
2023/02/26 04:35:29;;;;;;;4.77;1.00;;;1.70;99.90;;;;;;5039759;28;20204;-60
2023/02/26 04:37:56;;;;;;;10.00;1.10;;;1.70;99.90;;;;;;5038737;28;20203;-61
2023/02/26 04:40:23;;;;;;;5.63;0.80;;;1.70;99.90;;;;;;5036400;28;20263;-60
2023/02/26 04:42:50;;;;;;;2.00;0.80;;;1.70;99.90;;;;;;5035536;28;20222;-60
2023/02/26 04:45:17;;;;;;;3.07;0.90;;;1.70;99.90;;;;;;5036183;28;20799;-61
2023/02/26 04:47:44;;;;;;;3.83;0.90;;;1.70;99.90;;;;;;5037967;28;20290;-61
2023/02/26 04:50:11;;;;;;;2.63;1.20;;;1.80;99.90;;;;;;5039810;28;20314;-61
2023/02/26 04:52:38;;;;;;;6.93;1.13;;;1.60;99.90;;;;;;5037449;28;20200;-60
2023/02/26 04:55:06;;;;;;;2.60;0.80;;;1.60;99.90;;;;;;5034471;28;20307;-61
2023/02/26 04:57:33;;;;;;;3.67;0.80;;;1.60;99.90;;;;;;5033985;28;20568;-61
2023/02/26 05:00:00;;;;;;;2.13;1.03;;;1.50;99.90;;;;;;5034911;28;20201;-60
2023/02/26 05:02:27;;;;;;;3.50;0.90;;;1.60;99.90;;;;;;5031376;28;20295;-60
2023/02/26 05:04:53;;;;;;;2.20;0.60;;;1.50;99.90;;;;;;5032055;28;20262;-60
2023/02/26 05:07:20;;;;;;;2.83;1.07;;;1.50;99.90;;;;;;5038611;28;20211;-61
2023/02/26 05:09:47;;;;;;;1.03;0.70;;;1.60;99.90;;;;;;5037645;28;20278;-61
2023/02/26 05:12:14;;;;;;;2.87;0.97;;;1.50;99.90;;;;;;5039239;28;20623;-60
2023/02/26 05:14:41;;;;;;;2.30;0.67;;;1.50;99.90;;;;;;5039949;28;20322;-61
2023/02/26 05:17:09;;;;;;;4.20;0.83;;;1.40;99.90;;;;;;5039694;28;20219;-60
2023/02/26 05:19:35;;;;;;;4.27;0.93;;;1.50;99.90;;;;;;5036504;28;20972;-60
2023/02/26 05:22:02;;;;;;;3.70;0.70;;;1.50;99.90;;;;;;5034475;28;20257;-59
2023/02/26 05:24:29;;;;;;;4.13;0.97;;;1.40;99.90;;;;;;5033888;28;20259;-60
2023/02/26 05:26:56;;;;;;;2.00;0.70;;;1.40;99.90;;;;;;5034755;28;20311;-60
2023/02/26 05:29:23;;;;;;;1.83;0.83;;;1.40;99.90;;;;;;5033106;28;20204;-60
2023/02/26 05:31:50;;;;;;;5.40;0.77;;;1.40;99.90;;;;;;5029451;28;20295;-60
2023/02/26 05:34:17;;;;;;;3.60;1.03;;;1.40;99.90;;;;;;5031587;28;20211;-61
2023/02/26 05:36:43;;;;;;;6.80;0.93;;;1.40;99.90;;;;;;5031639;28;20237;-60
2023/02/26 05:39:10;;;;;;;4.67;0.70;;;1.30;99.90;;;;;;5033310;28;20204;-60
2023/02/26 05:41:37;;;;;;;3.83;0.90;;;1.30;99.90;;;;;;5034015;28;20231;-60
2023/02/26 05:44:04;;;;;;;2.87;0.97;;;1.40;99.90;;;;;;5039291;28;20215;-60
2023/02/26 05:46:31;;;;;;;4.43;1.07;;;1.40;99.90;;;;;;5022620;28;20206;-61
2023/02/26 05:48:58;;;;;;;2.70;0.90;;;1.40;99.90;;;;;;5036023;28;20204;-61
2023/02/26 05:51:24;;;;;;;4.83;0.70;;;1.40;99.90;;;;;;5035605;28;20231;-61
2023/02/26 05:53:51;;;;;;;2.60;0.80;;;1.40;99.90;;;;;;5036589;28;20308;-61
2023/02/26 05:56:18;;;;;;;1.30;0.60;;;1.40;99.90;;;;;;5038231;28;20296;-61
2023/02/26 05:58:45;;;;;;;8.87;1.00;;;1.20;99.90;;;;;;5035469;28;20304;-61
2023/02/26 06:01:13;;;;;;;2.00;0.80;;;1.20;99.90;;;;;;5033216;28;20638;-60
2023/02/26 06:03:43;;;;;;;1.33;0.70;;;1.30;99.90;;;;;;5037854;28;20311;-61
2023/02/26 06:06:11;;;;;;;4.87;0.67;;;1.20;99.90;;;;;;5037246;28;20504;-61
2023/02/26 06:08:38;;;;;;;1.90;0.60;;;1.20;99.90;;;;;;5034656;28;20197;-61
2023/02/26 06:11:05;;;;;;;6.53;0.80;;;1.10;99.90;;;;;;5037204;28;20294;-65
2023/02/26 06:13:32;;;;;;;3.30;0.80;;;1.00;99.90;;;;;;5038327;28;20197;-61
2023/02/26 06:15:58;;;;;;;6.80;1.00;;;1.00;99.90;;;;;;5038513;28;20681;-60
2023/02/26 06:18:25;;;;;;;3.17;1.00;;;1.00;99.90;;;;;;5037520;28;20207;-61
2023/02/26 06:20:52;;;;;;;1.60;0.63;;;1.10;99.90;;;;;;5037772;28;20687;-61
2023/02/26 06:23:19;;;;;;;2.40;0.50;;;1.00;99.90;;;;;;5039204;28;20741;-61
2023/02/26 06:25:46;;;;;;;8.20;1.63;;;1.00;99.90;;;;;;5037682;28;20206;-61
2023/02/26 06:28:13;;;;;;;3.30;0.70;;;1.00;99.90;;;;;;5032483;28;20593;-60
2023/02/26 06:30:40;;;;;;;0.97;0.60;;;1.10;99.90;;;;;;5033237;28;20643;-60
2023/02/26 06:33:07;;;;;;;0.63;0.57;;;1.00;99.90;;;;;;5031920;28;20200;-61
2023/02/26 06:35:33;;;;;;;2.00;1.00;;;1.00;99.90;;;;;;5032725;28;20203;-61
2023/02/26 06:38:00;;;;;;;1.27;0.60;;;1.00;99.90;;;;;;5032595;28;20258;-61
2023/02/26 06:40:27;;;;;;;3.37;0.80;;;1.00;99.90;;;;;;5035486;28;20289;-61
2023/02/26 06:42:54;;;;;;;2.97;0.73;;;1.00;99.90;;;;;;5034131;28;20311;-61
2023/02/26 06:45:21;;;;;;;3.53;0.93;;;0.90;99.90;;;;;;5036973;28;20219;-61
2023/02/26 06:47:48;;;;;;;2.37;0.70;;;0.90;99.90;;;;;;5037559;28;20670;-60
2023/02/26 06:50:15;;;;;;;0.93;0.60;;;0.90;99.90;;;;;;5036981;28;20211;-61
2023/02/26 06:52:42;;;;;;;1.17;0.50;;;1.00;99.90;;;;;;5035389;28;20204;-60
2023/02/26 06:55:09;;;;;;;1.30;0.70;;;1.00;99.90;;;;;;5037255;28;20205;-60
2023/02/26 06:57:36;;;;;;;4.87;0.67;;;1.00;99.90;;;;;;5038119;28;20234;-61
2023/02/26 07:00:05;;;;;;;2.57;0.60;;;1.00;99.90;;;;;;5036121;28;20710;-60
2023/02/26 07:02:31;;;;;;;2.17;0.77;;;1.00;99.90;;;;;;5029628;28;20716;-61
2023/02/26 07:04:58;;;;;;;3.13;0.50;;;1.10;99.90;;;;;;5034557;28;20209;-60
2023/02/26 07:07:25;;;;;;;3.70;0.70;;;1.00;99.90;;;;;;5034425;28;20356;-61
2023/02/26 07:09:52;;;;;;;0.93;0.40;;;1.10;99.90;;;;;;5034125;28;20200;-60
2023/02/26 07:12:19;;;;;;;2.30;0.50;;;1.00;99.90;;;;;;5029657;28;20234;-60
2023/02/26 07:14:46;;;;;;;2.20;0.90;;;1.10;99.90;;;;;;5033932;28;20396;-61
2023/02/26 07:17:19;;;;;;;2.23;0.60;;;1.10;99.90;;;;;;5037977;28;20266;-61
2023/02/26 07:19:47;;;;;;;3.43;0.70;;;1.20;99.90;;;;;;5035105;28;20290;-61
2023/02/26 07:22:14;;;;;;;1.20;0.60;;;1.20;99.90;;;;;;5037440;28;20200;-60
2023/02/26 07:24:42;;;;;;;1.40;0.53;;;1.30;99.90;;;;;;5034468;28;20208;-61
2023/02/26 07:27:09;;;;;;;2.30;0.77;;;1.40;99.90;;;;;;5038544;28;20200;-61
2023/02/26 07:29:36;;;;;;;1.93;0.97;;;1.50;99.90;;;;;;5036137;28;20636;-60
2023/02/26 07:32:03;;;;;;;4.87;0.80;;;1.60;99.90;;;;;;5035438;28;20221;-60
2023/02/26 07:34:31;;;;;;;2.80;0.67;;;1.60;99.90;;;;;;5032815;28;20203;-61
2023/02/26 07:37:00;;;;;;;2.00;0.80;;;1.90;99.90;;;;;;5031480;28;20232;-62
2023/02/26 07:39:27;;;;;;;0.70;0.37;;;2.10;99.90;;;;;;5033886;28;20288;-62
2023/02/26 07:41:54;;;;;;;1.03;0.50;;;2.40;99.90;;;;;;5033613;28;20541;-61
2023/02/26 07:44:23;;;;;;;2.33;0.67;;;2.50;99.90;;;;;;5032525;28;20255;-61
2023/02/26 07:46:50;;;;;;;3.13;0.87;;;2.50;99.90;;;;;;5037404;28;20210;-61
2023/02/26 07:49:17;;;;;;;2.03;0.60;;;2.70;99.90;;;;;;5031074;28;20603;-61
2023/02/26 07:51:44;;;;;;;4.63;1.00;;;2.80;99.90;;;;;;5036828;28;20206;-60
2023/02/26 07:54:12;;;;;;;1.30;0.53;;;3.00;99.90;;;;;;5035655;28;20217;-61
2023/02/26 07:56:41;;;;;;;2.73;0.70;;;3.30;99.90;;;;;;5045037;28;20288;-60
2023/02/26 07:59:09;;;;;;;2.20;0.87;;;3.40;99.90;;;;;;5036510;28;20303;-61
2023/02/26 08:01:36;;;;;;;3.57;0.90;;;3.30;99.90;;;;;;5037227;28;20647;-61
2023/02/26 08:04:04;;;;;;;2.10;0.70;;;3.20;99.90;;;;;;5037936;28;20212;-61
2023/02/26 08:06:31;;;;;;;2.47;0.80;;;3.30;99.90;;;;;;5038963;28;20248;-61
2023/02/26 08:08:57;;;;;;;0.67;0.50;;;3.30;99.90;;;;;;5038293;28;20207;-61
2023/02/26 08:11:24;;;;;;;2.97;0.60;;;3.30;99.90;;;;;;5039758;28;20268;-65
2023/02/26 08:13:51;;;;;;;2.17;0.60;;;3.60;99.90;;;;;;5040285;28;20198;-61
2023/02/26 08:16:18;;;;;;;2.70;0.50;;;3.80;99.90;;;;;;5039075;28;20206;-61
2023/02/26 08:18:45;;;;;;;2.20;0.60;;;4.00;99.90;;;;;;5038262;28;20202;-60
2023/02/26 08:21:12;;;;;;;1.97;0.80;;;4.30;99.90;;;;;;5032450;28;20232;-61
2023/02/26 08:23:39;;;;;;;4.33;0.80;;;4.30;99.90;;;;;;5035574;28;20234;-61
2023/02/26 08:26:10;;;;;;;0.60;0.40;;;4.50;99.90;;;;;;5037527;28;20268;-60
2023/02/26 08:28:37;;;;;;;3.23;0.77;;;4.30;99.90;;;;;;5037160;28;20658;-61
2023/02/26 08:31:05;;;;;;;3.33;1.07;;;4.30;99.90;;;;;;5035207;28;20620;-60
2023/02/26 08:33:33;;;;;;;3.20;0.80;;;4.60;99.90;;;;;;5036502;28;20565;-61
2023/02/26 08:36:00;;;;;;;0.83;0.60;;;4.90;99.90;;;;;;5028368;28;20722;-61
2023/02/26 08:38:28;;;;;;;1.93;0.80;;;4.90;99.90;;;;;;5029721;28;20212;-60
2023/02/26 08:40:56;;;;;;;3.60;1.13;;;5.20;99.90;;;;;;5034884;28;20207;-60
2023/02/26 08:43:23;;;;;;;1.90;1.00;;;5.10;99.90;;;;;;5035130;28;20521;-62
2023/02/26 08:45:55;;;;;;;2.33;0.83;;;5.70;99.90;;;;;;5034226;28;20310;-61
2023/02/26 08:48:22;;;;;;;4.23;0.70;;;5.90;99.90;;;;;;5034282;28;20317;-61
2023/02/26 08:50:49;;;;;;;1.27;0.67;;;5.70;99.90;;;;;;5033367;28;20211;-61
2023/02/26 08:53:16;;;;;;;3.37;1.00;;;5.80;99.90;;;;;;5025291;28;20657;-61
2023/02/26 08:55:50;;;;;;;2.52;0.93;;;5.70;99.90;;;;;;4683651;28;10000999;-61
2023/02/26 08:58:17;;;;;;;3.77;0.83;;;5.60;99.90;;;;;;5019355;28;20201;-60
2023/02/26 09:00:45;;;;;;;2.13;0.70;;;5.50;99.90;;;;;;5026986;28;20216;-60
2023/02/26 09:03:12;;;;;;;2.97;0.80;;;5.90;99.90;;;;;;5025898;28;20211;-60
2023/02/26 09:05:39;;;;;;;2.67;0.33;;;5.90;99.90;;;;;;5025322;28;20272;-60
2023/02/26 09:08:07;;;;;;;3.20;0.83;;;6.20;99.90;;;;;;5027621;28;20913;-61
2023/02/26 09:10:34;;;;;;;0.87;0.60;;;5.70;99.90;;;;;;5029957;28;20211;-61
2023/02/26 09:13:01;;;;;;;3.33;0.77;;;5.90;99.90;;;;;;5031116;28;20529;-60
2023/02/26 09:15:28;;;;;;;1.70;0.50;;;5.90;99.90;;;;;;5025361;28;20227;-60
2023/02/26 09:17:55;;;;;;;3.67;1.17;;;6.10;99.90;;;;;;5024159;28;20234;-60
2023/02/26 09:20:21;;;;;;;3.07;0.60;;;6.10;99.90;;;;;;5019016;28;20216;-61
2023/02/26 09:22:48;;;;;;;2.23;0.83;;;6.00;99.90;;;;;;5029466;28;20287;-60
2023/02/26 09:25:15;;;;;;;2.10;0.90;;;6.40;99.90;;;;;;5028081;28;21989;-61
2023/02/26 09:27:42;;;;;;;5.87;1.00;;;6.30;99.90;;;;;;5024874;28;20230;-61
2023/02/26 09:30:09;;;;;;;2.10;0.80;;;6.10;99.90;;;;;;5029758;28;20661;-61
2023/02/26 09:32:36;;;;;;;2.80;0.87;;;6.50;99.90;;;;;;5026115;28;20828;-61
2023/02/26 09:35:04;;;;;;;2.00;0.53;;;6.70;99.90;;;;;;5025815;28;20214;-62
2023/02/26 09:37:31;;;;;;;1.03;0.50;;;6.10;99.90;;;;;;5033545;28;20226;-61
2023/02/26 09:39:58;;;;;;;3.10;0.60;;;6.30;99.90;;;;;;5036613;28;20580;-61
2023/02/26 09:42:45;;;;;;;2.83;0.73;;;6.80;99.90;;;;;;5034528;28;20360;-61
2023/02/26 09:45:27;;;;;;;2.17;1.00;;;6.70;99.90;;;;;;5036035;28;20324;-61
2023/02/26 09:47:55;;;;;;;1.03;0.50;;;7.40;99.90;;;;;;5031397;28;20307;-60
2023/02/26 09:50:27;;;;;;;2.93;0.73;;;7.40;99.90;;;;;;5036828;28;20207;-61
2023/02/26 09:53:11;;;;;;;4.67;0.80;;;6.90;99.90;;;;;;5043725;28;20822;-62
2023/02/26 09:55:47;;;;;;;3.07;0.60;;;6.50;99.90;;;;;;5038136;28;20266;-61
2023/02/26 09:58:30;;;;;;;4.10;0.67;;;6.30;99.90;;;;;;5035602;28;20223;-60
2023/02/26 10:01:21;;;;;;;5.50;0.47;;;6.50;99.90;;;;;;5035926;28;20244;-60
2023/02/26 10:04:39;;;;;;;2.20;0.67;;;6.80;99.90;;;;;;5034202;28;20771;-60
2023/02/26 10:07:26;;;;;;;1.07;0.30;;;6.60;99.90;;;;;;5035899;28;20331;-60
2023/02/26 10:10:17;;;;;;;1.80;0.30;;;6.40;99.90;;;;;;5036497;28;20196;-62
2023/02/26 10:12:45;;;;;;;3.10;0.93;;;6.40;99.90;;;;;;5043926;28;20762;-61
2023/02/26 10:15:23;;;;;;;2.17;0.60;;;6.70;99.90;;;;;;5037488;28;20235;-60
2023/02/26 10:18:12;;;;;;;1.63;0.50;;;6.40;99.90;;;;;;5036115;28;20673;-61
2023/02/26 10:21:07;;;;;;;2.43;0.50;;;6.60;99.90;;;;;;5033262;28;20298;-61
2023/02/26 10:23:43;;;;;;;2.47;0.50;;;6.60;99.90;;;;;;5032420;28;20253;-61
2023/02/26 10:26:44;;;;;;;0.63;0.40;;;7.10;99.90;;;;;;5037281;28;20250;-60
2023/02/26 10:29:30;;;;;;;2.60;0.50;;;6.80;99.90;;;;;;5032491;28;20797;-61
2023/02/26 10:32:23;;;;;;;1.70;0.47;;;7.10;99.90;;;;;;5035925;28;20680;-62
2023/02/26 10:35:01;;;;;;;0.80;0.33;;;6.80;99.90;;;;;;5034640;28;20265;-60
2023/02/26 10:37:56;;;;;;;0.97;0.40;;;7.00;99.90;;;;;;5023991;28;21274;-61
2023/02/26 10:40:38;;;;;;;1.67;0.40;;;7.10;99.90;;;;;;5033639;28;20214;-61
2023/02/26 10:43:08;;;;;;;2.00;0.57;;;7.70;99.90;;;;;;5024039;28;20631;-63
2023/02/26 10:45:53;;;;;;;2.07;0.50;;;7.40;99.90;;;;;;5030003;28;20219;-62
2023/02/26 10:48:32;;;;;;;0.70;0.30;;;7.20;99.90;;;;;;5025836;28;20259;-62
2023/02/26 10:51:04;;;;;;;2.67;0.77;;;7.40;99.90;;;;;;5027893;28;20750;-62
2023/02/26 10:53:31;;;;;;;1.47;0.30;;;7.40;99.90;;;;;;5031538;28;20296;-61
2023/02/26 10:56:04;;;;;;;1.30;0.50;;;7.30;99.90;;;;;;5030207;28;20201;-61
2023/02/26 10:58:31;;;;;;;1.90;0.40;;;7.10;99.90;;;;;;5026879;28;20508;-61
2023/02/26 11:00:58;;;;;;;1.90;0.60;;;7.00;99.90;;;;;;5027596;28;20206;-61
2023/02/26 11:03:33;;;;;;;0.80;0.50;;;6.90;99.90;;;;;;5029142;28;20198;-61
2023/02/26 11:06:02;;;;;;;0.50;0.50;;;7.00;99.90;;;;;;5029137;28;20237;-61
2023/02/26 11:08:38;;;;;;;0.73;0.40;;;7.30;99.90;;;;;;5022922;28;20202;-62
2023/02/26 11:11:05;;;;;;;2.00;0.53;;;7.00;99.90;;;;;;5028824;28;20216;-61
2023/02/26 11:13:36;;;;;;;1.90;0.57;;;7.20;99.90;;;;;;5027726;28;20561;-60
2023/02/26 11:16:10;;;;;;;0.83;0.40;;;7.30;99.90;;;;;;5025641;28;20891;-61
2023/02/26 11:18:48;;;;;;;1.50;0.87;;;7.40;99.90;;;;;;5016151;28;21318;-63
2023/02/26 11:21:33;;;;;;;1.17;0.50;;;7.40;99.90;;;;;;5022288;28;20229;-61
2023/02/26 11:24:06;;;;;;;3.33;0.40;;;7.70;99.90;;;;;;5030108;28;20206;-64
2023/02/26 11:26:37;;;;;;;0.60;0.40;;;8.20;99.90;;;;;;5025714;28;20679;-62
2023/02/26 11:29:05;;;;;;;2.77;0.50;;;8.30;99.90;;;;;;5021477;28;20201;-61
2023/02/26 11:31:32;;;;;;;1.30;0.40;;;7.80;99.90;;;;;;5023556;28;20778;-62
2023/02/26 11:34:03;;;;;;;2.07;0.60;;;7.50;99.90;;;;;;5026423;28;20204;-61
2023/02/26 11:36:32;;;;;;;0.70;0.40;;;7.30;99.90;;;;;;5024236;28;20229;-61
2023/02/26 11:39:14;;;;;;;1.57;0.53;;;7.70;99.90;;;;;;5023624;28;20292;-61
2023/02/26 11:41:43;;;;;;;0.53;0.37;;;7.30;99.90;;;;;;5025181;28;20214;-61
2023/02/26 11:44:30;;;;;;;1.77;0.47;;;7.40;99.90;;;;;;5037759;28;20293;-60
2023/02/26 11:47:00;;;;;;;0.70;0.47;;;7.60;99.90;;;;;;5039065;28;20640;-60
2023/02/26 11:49:28;;;;;;;1.37;0.40;;;7.40;99.90;;;;;;5031894;28;20561;-60
2023/02/26 11:52:10;;;;;;;2.13;0.60;;;7.50;99.90;;;;;;5039150;28;20283;-61
2023/02/26 11:54:38;;;;;;;2.63;0.63;;;7.20;99.90;;;;;;5034961;28;20198;-60
2023/02/26 11:57:14;;;;;;;0.60;0.43;;;7.50;99.90;;;;;;5033282;28;20222;-60
2023/02/26 11:59:43;;;;;;;3.43;0.50;;;7.70;99.90;;;;;;5040198;28;20211;-60
2023/02/26 12:02:13;;;;;;;0.57;0.40;;;7.80;99.90;;;;;;5037857;28;20261;-60
2023/02/26 12:04:48;;;;;;;2.03;0.50;;;8.00;99.90;;;;;;5036643;28;20199;-60
2023/02/26 12:07:16;;;;;;;2.17;0.60;;;8.10;99.90;;;;;;5029038;28;20739;-60
2023/02/26 12:09:44;;;;;;;2.13;0.47;;;8.30;99.90;;;;;;5021627;28;20602;-60
2023/02/26 12:12:29;;;;;;;2.00;0.70;;;8.60;99.90;;;;;;5026810;28;20308;-61
2023/02/26 12:15:00;;;;;;;1.37;0.40;;;9.00;99.90;;;;;;5014007;28;20209;-60
2023/02/26 12:17:39;;;;;;;1.57;0.50;;;9.00;99.90;;;;;;5022901;28;20291;-62
2023/02/26 12:20:24;;;;;;;2.07;0.80;;;8.90;99.90;;;;;;5023419;28;20341;-65
2023/02/26 12:22:54;;;;;;;1.93;0.60;;;9.80;99.90;;;;;;5029590;28;20301;-62
2023/02/26 12:25:21;;;;;;;1.73;0.80;;;9.20;99.90;;;;;;5028182;28;20224;-65
2023/02/26 12:28:20;;;;;;;0.80;0.50;;;9.20;99.90;;;;;;5021156;28;20722;-66
2023/02/26 12:31:02;;;;;;;2.83;0.60;;;9.10;99.90;;;;;;5021766;28;20211;-68
2023/02/26 12:33:57;;;;;;;4.57;0.60;;;9.70;99.90;;;;;;5018053;28;20204;-66
2023/02/26 12:36:52;;;;;;;1.83;0.60;;;9.80;99.90;;;;;;5027148;28;20237;-67
2023/02/26 12:39:41;;;;;;;3.17;0.70;;;8.90;99.90;;;;;;5025116;28;20674;-66
2023/02/26 12:42:35;;;;;;;2.47;0.70;;;9.50;99.90;;;;;;5024367;28;20212;-65
2023/02/26 12:45:31;;;;;;;1.67;0.70;;;8.90;99.90;;;;;;5028177;28;20224;-67
2023/02/26 12:48:09;;;;;;;2.10;0.77;;;8.60;99.90;;;;;;4987674;28;20223;-67
2023/02/26 12:50:58;;;;;;;2.90;0.60;;;8.70;99.90;;;;;;5021231;28;20205;-67
2023/02/26 12:53:35;;;;;;;0.93;0.40;;;9.10;99.90;;;;;;5032717;28;20247;-66
2023/02/26 12:56:27;;;;;;;1.80;0.60;;;9.10;99.90;;;;;;5034168;28;20682;-66
2023/02/26 12:59:18;;;;;;;0.60;0.40;;;8.80;99.90;;;;;;5032651;28;20201;-66
2023/02/26 13:01:58;;;;;;;2.13;0.70;;;9.60;99.90;;;;;;5023471;28;20312;-66
2023/02/26 13:05:06;;;;;;;1.83;0.87;;;10.10;99.90;;;;;;5035867;28;20208;-68
2023/02/26 13:07:57;;;;;;;2.67;0.70;;;10.30;99.90;;;;;;5026449;28;20549;-67
2023/02/26 13:11:01;;;;;;;3.17;0.63;;;10.00;99.90;;;;;;5027447;28;20207;-61
2023/02/26 13:13:59;;;;;;;2.67;0.70;;;10.30;99.90;;;;;;5025697;28;20205;-61
2023/02/26 13:16:49;;;;;;;0.87;0.60;;;10.10;99.90;;;;;;5036995;28;20598;-60
2023/02/26 13:19:27;;;;;;;0.50;0.30;;;10.80;99.90;;;;;;5028394;28;20206;-61
2023/02/26 13:22:04;;;;;;;2.70;0.70;;;9.70;99.90;;;;;;5029015;28;20213;-61
2023/02/26 13:24:45;;;;;;;1.00;0.70;;;9.50;99.90;;;;;;5029901;28;20263;-61
2023/02/26 13:27:14;;;;;;;1.63;0.30;;;10.00;99.90;;;;;;5027997;28;20262;-61
2023/02/26 13:30:17;;;;;;;4.00;0.70;;;9.60;99.90;;;;;;5030443;28;20220;-61